sensor_id;sensor_type;location;lat;lon;timestamp;P1;durP1;ratioP1;P2;durP2;ratioP2
70757;SDS011;59316;52.964;7.102;2022-09-09T00:03:18;44.13;;;15.73;;
70757;SDS011;59316;52.964;7.102;2022-09-09T00:08:28;42.35;;;15.80;;
70757;SDS011;59316;52.964;7.102;2022-09-09T00:13:53;52.55;;;17.23;;
70757;SDS011;59316;52.964;7.102;2022-09-09T00:19:07;53.13;;;18.10;;
70757;SDS011;59316;52.964;7.102;2022-09-09T00:24:11;40.88;;;16.33;;
70757;SDS011;59316;52.964;7.102;2022-09-09T00:29:33;47.83;;;17.10;;
70757;SDS011;59316;52.964;7.102;2022-09-09T00:34:37;40.08;;;14.98;;
70757;SDS011;59316;52.964;7.102;2022-09-09T00:39:57;48.85;;;16.30;;
70757;SDS011;59316;52.964;7.102;2022-09-09T00:50:57;41.42;;;15.57;;
70757;SDS011;59316;52.964;7.102;2022-09-09T01:01:10;38.08;;;15.25;;
70757;SDS011;59316;52.964;7.102;2022-09-09T01:11:40;45.53;;;16.27;;
70757;SDS011;59316;52.964;7.102;2022-09-09T01:16:47;39.78;;;15.25;;
70757;SDS011;59316;52.964;7.102;2022-09-09T01:21:57;47.47;;;15.77;;
70757;SDS011;59316;52.964;7.102;2022-09-09T01:27:37;38.42;;;14.27;;
70757;SDS011;59316;52.964;7.102;2022-09-09T01:37:45;46.65;;;15.07;;
70757;SDS011;59316;52.964;7.102;2022-09-09T01:42:47;50.10;;;14.87;;
70757;SDS011;59316;52.964;7.102;2022-09-09T01:47:51;41.08;;;14.35;;
70757;SDS011;59316;52.964;7.102;2022-09-09T01:53:03;43.45;;;14.20;;
70757;SDS011;59316;52.964;7.102;2022-09-09T02:03:29;31.52;;;12.60;;
70757;SDS011;59316;52.964;7.102;2022-09-09T02:08:45;31.70;;;11.80;;
70757;SDS011;59316;52.964;7.102;2022-09-09T02:13:52;31.63;;;13.20;;
70757;SDS011;59316;52.964;7.102;2022-09-09T02:24:09;35.58;;;12.05;;
70757;SDS011;59316;52.964;7.102;2022-09-09T02:29:25;28.73;;;12.27;;
70757;SDS011;59316;52.964;7.102;2022-09-09T02:34:34;25.75;;;11.38;;
70757;SDS011;59316;52.964;7.102;2022-09-09T02:39:41;29.00;;;10.40;;
70757;SDS011;59316;52.964;7.102;2022-09-09T02:44:48;25.88;;;10.45;;
70757;SDS011;59316;52.964;7.102;2022-09-09T02:55:00;24.58;;;10.02;;
70757;SDS011;59316;52.964;7.102;2022-09-09T03:00:10;30.67;;;10.95;;
70757;SDS011;59316;52.964;7.102;2022-09-09T03:05:13;34.00;;;11.95;;
70757;SDS011;59316;52.964;7.102;2022-09-09T03:10:16;35.50;;;11.95;;
70757;SDS011;59316;52.964;7.102;2022-09-09T03:20:22;31.63;;;11.90;;
70757;SDS011;59316;52.964;7.102;2022-09-09T03:25:26;30.05;;;12.13;;
70757;SDS011;59316;52.964;7.102;2022-09-09T03:30:29;39.60;;;13.40;;
70757;SDS011;59316;52.964;7.102;2022-09-09T03:35:32;34.97;;;13.00;;
70757;SDS011;59316;52.964;7.102;2022-09-09T03:40:36;29.35;;;11.55;;
70757;SDS011;59316;52.964;7.102;2022-09-09T03:45:38;37.13;;;13.63;;
70757;SDS011;59316;52.964;7.102;2022-09-09T03:50:45;36.03;;;12.52;;
70757;SDS011;59316;52.964;7.102;2022-09-09T03:55:49;35.83;;;12.32;;
70757;SDS011;59316;52.964;7.102;2022-09-09T04:00:57;36.88;;;12.50;;
70757;SDS011;59316;52.964;7.102;2022-09-09T04:06:02;31.65;;;12.13;;
70757;SDS011;59316;52.964;7.102;2022-09-09T04:11:07;33.15;;;11.48;;
70757;SDS011;59316;52.964;7.102;2022-09-09T04:16:11;23.08;;;9.80;;
70757;SDS011;59316;52.964;7.102;2022-09-09T04:21:15;31.33;;;10.27;;
70757;SDS011;59316;52.964;7.102;2022-09-09T04:26:18;22.50;;;8.60;;
70757;SDS011;59316;52.964;7.102;2022-09-09T04:31:21;19.97;;;8.50;;
70757;SDS011;59316;52.964;7.102;2022-09-09T04:36:27;17.00;;;7.70;;
70757;SDS011;59316;52.964;7.102;2022-09-09T04:41:34;21.88;;;7.38;;
70757;SDS011;59316;52.964;7.102;2022-09-09T04:46:36;21.77;;;7.80;;
70757;SDS011;59316;52.964;7.102;2022-09-09T04:51:39;19.93;;;8.60;;
70757;SDS011;59316;52.964;7.102;2022-09-09T04:56:41;22.98;;;8.77;;
70757;SDS011;59316;52.964;7.102;2022-09-09T05:01:45;24.52;;;9.10;;
70757;SDS011;59316;52.964;7.102;2022-09-09T05:06:48;22.30;;;8.13;;
70757;SDS011;59316;52.964;7.102;2022-09-09T05:11:50;19.25;;;8.27;;
70757;SDS011;59316;52.964;7.102;2022-09-09T05:17:06;21.58;;;8.48;;
70757;SDS011;59316;52.964;7.102;2022-09-09T05:22:10;19.13;;;7.85;;
70757;SDS011;59316;52.964;7.102;2022-09-09T05:27:18;20.20;;;8.30;;
70757;SDS011;59316;52.964;7.102;2022-09-09T05:32:23;21.77;;;8.68;;
70757;SDS011;59316;52.964;7.102;2022-09-09T05:37:26;23.25;;;9.00;;
70757;SDS011;59316;52.964;7.102;2022-09-09T05:42:30;24.55;;;9.43;;
70757;SDS011;59316;52.964;7.102;2022-09-09T05:47:33;24.70;;;9.05;;
70757;SDS011;59316;52.964;7.102;2022-09-09T05:52:37;26.40;;;10.63;;
70757;SDS011;59316;52.964;7.102;2022-09-09T05:57:40;30.48;;;11.43;;
70757;SDS011;59316;52.964;7.102;2022-09-09T06:02:43;26.77;;;10.48;;
70757;SDS011;59316;52.964;7.102;2022-09-09T06:07:53;19.77;;;10.13;;
70757;SDS011;59316;52.964;7.102;2022-09-09T06:12:55;23.45;;;10.57;;
70757;SDS011;59316;52.964;7.102;2022-09-09T06:17:57;19.58;;;9.43;;
70757;SDS011;59316;52.964;7.102;2022-09-09T06:23:00;26.20;;;9.65;;
70757;SDS011;59316;52.964;7.102;2022-09-09T06:28:02;20.52;;;8.90;;
70757;SDS011;59316;52.964;7.102;2022-09-09T06:33:05;21.08;;;8.98;;
70757;SDS011;59316;52.964;7.102;2022-09-09T06:38:08;11.57;;;7.00;;
70757;SDS011;59316;52.964;7.102;2022-09-09T06:43:10;12.32;;;7.20;;
70757;SDS011;59316;52.964;7.102;2022-09-09T06:48:20;15.45;;;6.35;;
70757;SDS011;59316;52.964;7.102;2022-09-09T06:53:21;10.15;;;5.53;;
70757;SDS011;59316;52.964;7.102;2022-09-09T06:58:24;8.50;;;4.78;;
70757;SDS011;59316;52.964;7.102;2022-09-09T07:03:29;10.30;;;6.07;;
70757;SDS011;59316;52.964;7.102;2022-09-09T07:08:31;8.30;;;5.22;;
70757;SDS011;59316;52.964;7.102;2022-09-09T07:13:35;11.70;;;5.53;;
70757;SDS011;59316;52.964;7.102;2022-09-09T07:18:38;9.32;;;5.47;;
70757;SDS011;59316;52.964;7.102;2022-09-09T07:23:42;11.52;;;5.95;;
70757;SDS011;59316;52.964;7.102;2022-09-09T07:28:45;9.40;;;6.28;;
70757;SDS011;59316;52.964;7.102;2022-09-09T07:33:48;9.10;;;6.20;;
70757;SDS011;59316;52.964;7.102;2022-09-09T07:38:58;9.07;;;6.18;;
70757;SDS011;59316;52.964;7.102;2022-09-09T07:44:05;11.13;;;6.55;;
70757;SDS011;59316;52.964;7.102;2022-09-09T07:49:10;7.95;;;5.45;;
70757;SDS011;59316;52.964;7.102;2022-09-09T07:54:14;7.88;;;5.00;;
70757;SDS011;59316;52.964;7.102;2022-09-09T07:59:19;8.48;;;4.95;;
70757;SDS011;59316;52.964;7.102;2022-09-09T08:04:25;4.38;;;3.70;;
70757;SDS011;59316;52.964;7.102;2022-09-09T08:09:28;6.72;;;4.20;;
70757;SDS011;59316;52.964;7.102;2022-09-09T08:14:54;6.95;;;4.60;;
70757;SDS011;59316;52.964;7.102;2022-09-09T08:19:59;6.57;;;4.20;;
70757;SDS011;59316;52.964;7.102;2022-09-09T08:25:03;6.45;;;4.90;;
70757;SDS011;59316;52.964;7.102;2022-09-09T08:30:07;7.10;;;4.00;;
70757;SDS011;59316;52.964;7.102;2022-09-09T08:35:10;6.53;;;3.95;;
70757;SDS011;59316;52.964;7.102;2022-09-09T08:40:17;7.05;;;3.63;;
70757;SDS011;59316;52.964;7.102;2022-09-09T08:50:36;6.15;;;3.22;;
70757;SDS011;59316;52.964;7.102;2022-09-09T08:55:47;10.27;;;3.22;;
70757;SDS011;59316;52.964;7.102;2022-09-09T09:11:26;6.40;;;3.10;;
70757;SDS011;59316;52.964;7.102;2022-09-09T09:21:49;5.57;;;2.40;;
70757;SDS011;59316;52.964;7.102;2022-09-09T09:27:07;8.07;;;3.08;;
70757;SDS011;59316;52.964;7.102;2022-09-09T09:32:19;5.38;;;3.08;;
70757;SDS011;59316;52.964;7.102;2022-09-09T09:37:28;6.03;;;3.47;;
70757;SDS011;59316;52.964;7.102;2022-09-09T09:42:34;8.40;;;3.25;;
70757;SDS011;59316;52.964;7.102;2022-09-09T09:53:04;7.75;;;2.55;;
70757;SDS011;59316;52.964;7.102;2022-09-09T09:58:19;5.72;;;2.60;;
70757;SDS011;59316;52.964;7.102;2022-09-09T10:08:33;7.45;;;2.90;;
70757;SDS011;59316;52.964;7.102;2022-09-09T10:14:03;5.05;;;2.33;;
70757;SDS011;59316;52.964;7.102;2022-09-09T10:19:13;6.50;;;1.55;;
70757;SDS011;59316;52.964;7.102;2022-09-09T10:40:02;8.75;;;1.98;;
70757;SDS011;59316;52.964;7.102;2022-09-09T10:45:44;6.85;;;1.48;;
70757;SDS011;59316;52.964;7.102;2022-09-09T10:51:02;6.13;;;1.58;;
70757;SDS011;59316;52.964;7.102;2022-09-09T10:56:23;6.28;;;1.60;;
70757;SDS011;59316;52.964;7.102;2022-09-09T11:01:31;7.70;;;1.58;;
70757;SDS011;59316;52.964;7.102;2022-09-09T11:06:37;4.32;;;1.63;;
70757;SDS011;59316;52.964;7.102;2022-09-09T11:11:49;5.35;;;1.40;;
70757;SDS011;59316;52.964;7.102;2022-09-09T11:17:00;5.47;;;1.50;;
70757;SDS011;59316;52.964;7.102;2022-09-09T11:33:13;4.53;;;1.40;;
70757;SDS011;59316;52.964;7.102;2022-09-09T11:43:30;3.85;;;1.20;;
70757;SDS011;59316;52.964;7.102;2022-09-09T11:48:35;3.53;;;1.20;;
70757;SDS011;59316;52.964;7.102;2022-09-09T11:53:48;5.65;;;1.30;;
70757;SDS011;59316;52.964;7.102;2022-09-09T12:14:43;4.63;;;1.38;;
70757;SDS011;59316;52.964;7.102;2022-09-09T12:30:57;4.80;;;1.30;;
70757;SDS011;59316;52.964;7.102;2022-09-09T12:36:13;4.88;;;1.10;;
70757;SDS011;59316;52.964;7.102;2022-09-09T12:41:24;6.63;;;1.20;;
70757;SDS011;59316;52.964;7.102;2022-09-09T12:58:27;7.28;;;1.08;;
70757;SDS011;59316;52.964;7.102;2022-09-09T13:03:32;4.65;;;1.20;;
70757;SDS011;59316;52.964;7.102;2022-09-09T13:08:36;8.13;;;1.00;;
70757;SDS011;59316;52.964;7.102;2022-09-09T13:13:39;8.57;;;1.30;;
70757;SDS011;59316;52.964;7.102;2022-09-09T13:18:43;3.10;;;1.10;;
70757;SDS011;59316;52.964;7.102;2022-09-09T13:23:49;5.45;;;1.20;;
70757;SDS011;59316;52.964;7.102;2022-09-09T13:28:53;29.42;;;2.78;;
70757;SDS011;59316;52.964;7.102;2022-09-09T13:33:56;18.02;;;1.60;;
70757;SDS011;59316;52.964;7.102;2022-09-09T13:38:59;2.88;;;1.10;;
70757;SDS011;59316;52.964;7.102;2022-09-09T13:44:03;4.15;;;1.10;;
70757;SDS011;59316;52.964;7.102;2022-09-09T13:54:09;2.42;;;0.95;;
70757;SDS011;59316;52.964;7.102;2022-09-09T13:59:17;2.08;;;1.23;;
70757;SDS011;59316;52.964;7.102;2022-09-09T14:04:21;3.97;;;1.30;;
70757;SDS011;59316;52.964;7.102;2022-09-09T14:09:24;2.60;;;1.30;;
70757;SDS011;59316;52.964;7.102;2022-09-09T14:14:26;6.32;;;1.58;;
70757;SDS011;59316;52.964;7.102;2022-09-09T14:19:29;4.63;;;2.60;;
70757;SDS011;59316;52.964;7.102;2022-09-09T14:29:34;3.00;;;1.40;;
70757;SDS011;59316;52.964;7.102;2022-09-09T14:34:36;4.97;;;1.45;;
70757;SDS011;59316;52.964;7.102;2022-09-09T14:39:39;6.65;;;1.52;;
70757;SDS011;59316;52.964;7.102;2022-09-09T14:44:41;3.03;;;1.48;;
70757;SDS011;59316;52.964;7.102;2022-09-09T14:49:44;3.35;;;0.95;;
70757;SDS011;59316;52.964;7.102;2022-09-09T14:54:48;4.07;;;1.50;;
70757;SDS011;59316;52.964;7.102;2022-09-09T14:59:50;4.53;;;1.30;;
70757;SDS011;59316;52.964;7.102;2022-09-09T15:04:53;5.68;;;1.30;;
70757;SDS011;59316;52.964;7.102;2022-09-09T15:09:55;4.28;;;1.20;;
70757;SDS011;59316;52.964;7.102;2022-09-09T15:14:58;1.77;;;0.95;;
70757;SDS011;59316;52.964;7.102;2022-09-09T15:20:01;1.13;;;0.90;;
70757;SDS011;59316;52.964;7.102;2022-09-09T15:25:07;3.13;;;1.13;;
70757;SDS011;59316;52.964;7.102;2022-09-09T15:30:10;2.28;;;0.88;;
70757;SDS011;59316;52.964;7.102;2022-09-09T15:35:14;2.13;;;0.70;;
70757;SDS011;59316;52.964;7.102;2022-09-09T15:40:16;2.22;;;0.70;;
70757;SDS011;59316;52.964;7.102;2022-09-09T15:45:19;4.07;;;0.70;;
70757;SDS011;59316;52.964;7.102;2022-09-09T15:50:21;2.08;;;0.50;;
70757;SDS011;59316;52.964;7.102;2022-09-09T15:55:24;2.70;;;0.57;;
70757;SDS011;59316;52.964;7.102;2022-09-09T16:00:26;0.60;;;0.47;;
70757;SDS011;59316;52.964;7.102;2022-09-09T16:05:29;1.20;;;0.70;;
70757;SDS011;59316;52.964;7.102;2022-09-09T16:10:31;1.33;;;0.75;;
70757;SDS011;59316;52.964;7.102;2022-09-09T16:15:33;1.42;;;0.73;;
70757;SDS011;59316;52.964;7.102;2022-09-09T16:20:36;2.05;;;1.30;;
70757;SDS011;59316;52.964;7.102;2022-09-09T16:25:38;3.55;;;0.80;;
70757;SDS011;59316;52.964;7.102;2022-09-09T16:30:41;2.17;;;0.90;;
70757;SDS011;59316;52.964;7.102;2022-09-09T16:35:43;1.83;;;0.82;;
70757;SDS011;59316;52.964;7.102;2022-09-09T16:40:46;4.50;;;0.95;;
70757;SDS011;59316;52.964;7.102;2022-09-09T16:45:48;2.25;;;0.80;;
70757;SDS011;59316;52.964;7.102;2022-09-09T16:50:51;2.45;;;0.93;;
70757;SDS011;59316;52.964;7.102;2022-09-09T16:55:53;2.20;;;1.00;;
70757;SDS011;59316;52.964;7.102;2022-09-09T17:00:59;2.35;;;1.10;;
70757;SDS011;59316;52.964;7.102;2022-09-09T17:06:02;1.98;;;0.95;;
70757;SDS011;59316;52.964;7.102;2022-09-09T17:11:11;1.73;;;1.00;;
70757;SDS011;59316;52.964;7.102;2022-09-09T17:16:15;3.25;;;0.93;;
70757;SDS011;59316;52.964;7.102;2022-09-09T17:21:20;3.13;;;1.40;;
70757;SDS011;59316;52.964;7.102;2022-09-09T17:26:26;3.47;;;1.27;;
70757;SDS011;59316;52.964;7.102;2022-09-09T17:31:31;2.90;;;1.23;;
70757;SDS011;59316;52.964;7.102;2022-09-09T17:36:33;1.65;;;1.20;;
70757;SDS011;59316;52.964;7.102;2022-09-09T17:41:36;2.58;;;1.10;;
70757;SDS011;59316;52.964;7.102;2022-09-09T17:46:40;4.88;;;1.35;;
70757;SDS011;59316;52.964;7.102;2022-09-09T17:51:45;3.42;;;1.30;;
70757;SDS011;59316;52.964;7.102;2022-09-09T18:01:49;7.05;;;1.75;;
70757;SDS011;59316;52.964;7.102;2022-09-09T18:06:52;4.47;;;1.60;;
70757;SDS011;59316;52.964;7.102;2022-09-09T18:11:56;2.40;;;1.33;;
70757;SDS011;59316;52.964;7.102;2022-09-09T18:17:00;2.38;;;1.67;;
70757;SDS011;59316;52.964;7.102;2022-09-09T18:22:04;3.47;;;1.60;;
70757;SDS011;59316;52.964;7.102;2022-09-09T18:27:07;8.13;;;2.15;;
70757;SDS011;59316;52.964;7.102;2022-09-09T18:32:09;3.22;;;2.30;;
70757;SDS011;59316;52.964;7.102;2022-09-09T18:37:12;6.15;;;2.65;;
70757;SDS011;59316;52.964;7.102;2022-09-09T18:42:14;6.40;;;2.38;;
70757;SDS011;59316;52.964;7.102;2022-09-09T18:47:17;6.28;;;3.13;;
70757;SDS011;59316;52.964;7.102;2022-09-09T18:52:19;5.40;;;2.10;;
70757;SDS011;59316;52.964;7.102;2022-09-09T18:57:22;4.55;;;1.90;;
70757;SDS011;59316;52.964;7.102;2022-09-09T19:02:24;6.28;;;2.40;;
70757;SDS011;59316;52.964;7.102;2022-09-09T19:07:27;6.10;;;2.20;;
70757;SDS011;59316;52.964;7.102;2022-09-09T19:12:29;3.63;;;2.33;;
70757;SDS011;59316;52.964;7.102;2022-09-09T19:17:32;5.68;;;3.05;;
70757;SDS011;59316;52.964;7.102;2022-09-09T19:22:34;5.20;;;2.78;;
70757;SDS011;59316;52.964;7.102;2022-09-09T19:27:37;6.70;;;3.27;;
70757;SDS011;59316;52.964;7.102;2022-09-09T19:32:40;5.65;;;3.35;;
70757;SDS011;59316;52.964;7.102;2022-09-09T19:37:58;7.60;;;3.85;;
70757;SDS011;59316;52.964;7.102;2022-09-09T19:43:00;4.72;;;3.90;;
70757;SDS011;59316;52.964;7.102;2022-09-09T19:48:03;7.28;;;4.07;;
70757;SDS011;59316;52.964;7.102;2022-09-09T19:53:05;7.88;;;4.70;;
70757;SDS011;59316;52.964;7.102;2022-09-09T19:58:07;7.63;;;4.97;;
70757;SDS011;59316;52.964;7.102;2022-09-09T20:03:10;10.77;;;5.38;;
70757;SDS011;59316;52.964;7.102;2022-09-09T20:08:20;11.57;;;5.00;;
70757;SDS011;59316;52.964;7.102;2022-09-09T20:13:23;6.60;;;4.45;;
70757;SDS011;59316;52.964;7.102;2022-09-09T20:18:26;11.13;;;5.30;;
70757;SDS011;59316;52.964;7.102;2022-09-09T20:23:29;11.57;;;5.47;;
70757;SDS011;59316;52.964;7.102;2022-09-09T20:28:33;9.63;;;5.07;;
70757;SDS011;59316;52.964;7.102;2022-09-09T20:33:36;7.70;;;5.18;;
70757;SDS011;59316;52.964;7.102;2022-09-09T20:38:40;8.55;;;5.38;;
70757;SDS011;59316;52.964;7.102;2022-09-09T20:43:50;10.75;;;5.47;;
70757;SDS011;59316;52.964;7.102;2022-09-09T20:48:54;9.35;;;5.78;;
70757;SDS011;59316;52.964;7.102;2022-09-09T20:53:59;7.35;;;5.50;;
70757;SDS011;59316;52.964;7.102;2022-09-09T20:59:08;10.63;;;6.35;;
70757;SDS011;59316;52.964;7.102;2022-09-09T21:04:13;9.60;;;6.15;;
70757;SDS011;59316;52.964;7.102;2022-09-09T21:09:18;10.75;;;5.82;;
70757;SDS011;59316;52.964;7.102;2022-09-09T21:14:21;13.93;;;7.45;;
70757;SDS011;59316;52.964;7.102;2022-09-09T21:19:23;8.07;;;5.47;;
70757;SDS011;59316;52.964;7.102;2022-09-09T21:24:26;13.50;;;6.20;;
70757;SDS011;59316;52.964;7.102;2022-09-09T21:29:28;14.30;;;7.60;;
70757;SDS011;59316;52.964;7.102;2022-09-09T21:34:32;19.67;;;9.38;;
70757;SDS011;59316;52.964;7.102;2022-09-09T21:39:35;14.80;;;8.35;;
70757;SDS011;59316;52.964;7.102;2022-09-09T21:44:38;24.13;;;11.63;;
70757;SDS011;59316;52.964;7.102;2022-09-09T21:49:41;21.67;;;11.27;;
70757;SDS011;59316;52.964;7.102;2022-09-09T21:54:43;21.77;;;11.00;;
70757;SDS011;59316;52.964;7.102;2022-09-09T21:59:46;17.23;;;9.63;;
70757;SDS011;59316;52.964;7.102;2022-09-09T22:04:48;25.00;;;11.73;;
70757;SDS011;59316;52.964;7.102;2022-09-09T22:09:51;24.97;;;11.93;;
70757;SDS011;59316;52.964;7.102;2022-09-09T22:14:53;22.07;;;11.70;;
70757;SDS011;59316;52.964;7.102;2022-09-09T22:19:55;27.93;;;13.40;;
70757;SDS011;59316;52.964;7.102;2022-09-09T22:24:58;33.13;;;14.93;;
70757;SDS011;59316;52.964;7.102;2022-09-09T22:30:00;32.80;;;15.57;;
70757;SDS011;59316;52.964;7.102;2022-09-09T22:35:03;45.03;;;18.67;;
70757;SDS011;59316;52.964;7.102;2022-09-09T22:40:06;46.38;;;18.23;;
70757;SDS011;59316;52.964;7.102;2022-09-09T22:45:09;52.30;;;20.40;;
70757;SDS011;59316;52.964;7.102;2022-09-09T22:50:11;54.95;;;21.25;;
70757;SDS011;59316;52.964;7.102;2022-09-09T22:55:14;50.33;;;20.00;;
70757;SDS011;59316;52.964;7.102;2022-09-09T23:00:16;45.10;;;18.97;;
70757;SDS011;59316;52.964;7.102;2022-09-09T23:05:19;58.83;;;20.43;;
70757;SDS011;59316;52.964;7.102;2022-09-09T23:10:21;70.03;;;22.75;;
70757;SDS011;59316;52.964;7.102;2022-09-09T23:15:24;51.03;;;19.80;;
70757;SDS011;59316;52.964;7.102;2022-09-09T23:20:26;71.65;;;22.40;;
70757;SDS011;59316;52.964;7.102;2022-09-09T23:25:29;69.40;;;22.97;;
70757;SDS011;59316;52.964;7.102;2022-09-09T23:30:31;68.20;;;22.83;;
70757;SDS011;59316;52.964;7.102;2022-09-09T23:35:33;74.90;;;22.17;;
70757;SDS011;59316;52.964;7.102;2022-09-09T23:40:36;65.97;;;20.97;;
70757;SDS011;59316;52.964;7.102;2022-09-09T23:45:38;70.50;;;23.00;;
70757;SDS011;59316;52.964;7.102;2022-09-09T23:50:42;69.32;;;21.45;;
70757;SDS011;59316;52.964;7.102;2022-09-09T23:55:45;74.88;;;22.77;;
